sensor_id;sensor_type;location;lat;lon;timestamp;pressure;altitude;pressure_sealevel;temperature;humidity
13420;BME280;6781;58.440;15.470;2023-02-01T00:01:31;99480.94;;;0.69;100.00
13420;BME280;6781;58.440;15.470;2023-02-01T00:04:13;99481.94;;;0.66;100.00
13420;BME280;6781;58.440;15.470;2023-02-01T00:06:59;99489.50;;;0.68;100.00
13420;BME280;6781;58.440;15.470;2023-02-01T00:39:31;99559.22;;;0.68;100.00
13420;BME280;6781;58.440;15.470;2023-02-01T00:42:03;99567.69;;;0.69;100.00
13420;BME280;6781;58.440;15.470;2023-02-01T00:44:44;99577.81;;;0.70;100.00
13420;BME280;6781;58.440;15.470;2023-02-01T00:47:23;99580.28;;;0.72;100.00
13420;BME280;6781;58.440;15.470;2023-02-01T00:49:55;99579.44;;;0.71;100.00
13420;BME280;6781;58.440;15.470;2023-02-01T00:52:25;99584.47;;;0.73;100.00
13420;BME280;6781;58.440;15.470;2023-02-01T01:15:05;99629.63;;;1.02;100.00
13420;BME280;6781;58.440;15.470;2023-02-01T01:17:34;99633.41;;;0.95;100.00
13420;BME280;6781;58.440;15.470;2023-02-01T01:20:01;99634.31;;;0.94;100.00
13420;BME280;6781;58.440;15.470;2023-02-01T01:22:31;99643.03;;;0.90;100.00
13420;BME280;6781;58.440;15.470;2023-02-01T01:24:58;99631.38;;;0.86;100.00
13420;BME280;6781;58.440;15.470;2023-02-01T01:27:30;99645.28;;;0.80;100.00
13420;BME280;6781;58.440;15.470;2023-02-01T01:29:59;99662.16;;;0.83;100.00
13420;BME280;6781;58.440;15.470;2023-02-01T01:35:20;99664.38;;;0.89;100.00
13420;BME280;6781;58.440;15.470;2023-02-01T01:37:50;99665.44;;;0.85;100.00
13420;BME280;6781;58.440;15.470;2023-02-01T01:40:19;99660.66;;;0.79;100.00
13420;BME280;6781;58.440;15.470;2023-02-01T01:43:05;99661.06;;;0.87;100.00
13420;BME280;6781;58.440;15.470;2023-02-01T01:45:51;99661.81;;;0.89;100.00
13420;BME280;6781;58.440;15.470;2023-02-01T01:48:50;99669.47;;;0.89;100.00
13420;BME280;6781;58.440;15.470;2023-02-01T03:03:15;99633.34;;;0.81;100.00
13420;BME280;6781;58.440;15.470;2023-02-01T03:08:34;99632.44;;;0.82;100.00
13420;BME280;6781;58.440;15.470;2023-02-01T03:11:18;99633.91;;;0.86;100.00
13420;BME280;6781;58.440;15.470;2023-02-01T03:14:11;99636.63;;;0.83;100.00
13420;BME280;6781;58.440;15.470;2023-02-01T03:16:40;99646.09;;;0.81;100.00
13420;BME280;6781;58.440;15.470;2023-02-01T03:19:11;99648.41;;;0.85;100.00
13420;BME280;6781;58.440;15.470;2023-02-01T03:21:41;99653.66;;;0.82;100.00
13420;BME280;6781;58.440;15.470;2023-02-01T03:24:10;99667.00;;;0.87;100.00
13420;BME280;6781;58.440;15.470;2023-02-01T03:26:40;99667.66;;;0.91;100.00
13420;BME280;6781;58.440;15.470;2023-02-01T03:29:10;99673.59;;;0.91;100.00
13420;BME280;6781;58.440;15.470;2023-02-01T03:31:43;99671.84;;;0.92;100.00
13420;BME280;6781;58.440;15.470;2023-02-01T03:34:12;99680.34;;;0.92;100.00
13420;BME280;6781;58.440;15.470;2023-02-01T03:36:48;99686.44;;;0.90;100.00
13420;BME280;6781;58.440;15.470;2023-02-01T03:39:27;99693.19;;;0.91;100.00
13420;BME280;6781;58.440;15.470;2023-02-01T03:42:12;99700.66;;;0.94;100.00
13420;BME280;6781;58.440;15.470;2023-02-01T03:44:51;99687.16;;;0.92;100.00
13420;BME280;6781;58.440;15.470;2023-02-01T03:47:37;99699.94;;;0.92;100.00
13420;BME280;6781;58.440;15.470;2023-02-01T03:50:18;99707.66;;;0.90;100.00
13420;BME280;6781;58.440;15.470;2023-02-01T03:52:50;99716.88;;;0.93;100.00
13420;BME280;6781;58.440;15.470;2023-02-01T03:55:43;99722.81;;;0.93;100.00
13420;BME280;6781;58.440;15.470;2023-02-01T03:58:32;99731.28;;;0.94;100.00
13420;BME280;6781;58.440;15.470;2023-02-01T04:01:36;99735.25;;;1.00;100.00
13420;BME280;6781;58.440;15.470;2023-02-01T04:04:46;99752.28;;;0.99;100.00
13420;BME280;6781;58.440;15.470;2023-02-01T04:25:25;99762.41;;;1.01;100.00
13420;BME280;6781;58.440;15.470;2023-02-01T04:28:08;99765.88;;;1.00;100.00
13420;BME280;6781;58.440;15.470;2023-02-01T04:31:05;99769.09;;;1.03;100.00
13420;BME280;6781;58.440;15.470;2023-02-01T04:33:58;99766.63;;;1.02;100.00
13420;BME280;6781;58.440;15.470;2023-02-01T04:36:52;99766.69;;;1.00;100.00
13420;BME280;6781;58.440;15.470;2023-02-01T04:39:39;99767.44;;;1.02;100.00
13420;BME280;6781;58.440;15.470;2023-02-01T05:39:24;99840.16;;;1.11;100.00
13420;BME280;6781;58.440;15.470;2023-02-01T05:41:57;99829.72;;;1.15;100.00
13420;BME280;6781;58.440;15.470;2023-02-01T05:44:24;99814.72;;;1.09;100.00
13420;BME280;6781;58.440;15.470;2023-02-01T05:46:51;99815.63;;;1.08;100.00
13420;BME280;6781;58.440;15.470;2023-02-01T05:49:38;99804.81;;;1.03;100.00
13420;BME280;6781;58.440;15.470;2023-02-01T05:52:05;99797.50;;;0.97;100.00
13420;BME280;6781;58.440;15.470;2023-02-01T05:54:35;99809.44;;;0.96;100.00
13420;BME280;6781;58.440;15.470;2023-02-01T05:57:04;99821.94;;;1.01;100.00
13420;BME280;6781;58.440;15.470;2023-02-01T05:59:37;99821.13;;;1.01;100.00
13420;BME280;6781;58.440;15.470;2023-02-01T06:02:09;99824.59;;;1.00;100.00
13420;BME280;6781;58.440;15.470;2023-02-01T06:04:51;99832.00;;;1.04;100.00
13420;BME280;6781;58.440;15.470;2023-02-01T06:13:35;99842.38;;;1.01;100.00
13420;BME280;6781;58.440;15.470;2023-02-01T06:16:04;99846.34;;;1.07;100.00
13420;BME280;6781;58.440;15.470;2023-02-01T06:18:39;99833.50;;;1.08;100.00
13420;BME280;6781;58.440;15.470;2023-02-01T06:21:38;99839.25;;;1.12;100.00
13420;BME280;6781;58.440;15.470;2023-02-01T06:43:58;99862.78;;;1.01;100.00
13420;BME280;6781;58.440;15.470;2023-02-01T17:06:32;100545.34;;;-0.37;100.00
13420;BME280;6781;58.440;15.470;2023-02-01T17:12:21;100535.47;;;-0.46;100.00
13420;BME280;6781;58.440;15.470;2023-02-01T17:15:01;100548.88;;;-0.41;100.00
13420;BME280;6781;58.440;15.470;2023-02-01T17:42:55;100604.47;;;-0.54;100.00
13420;BME280;6781;58.440;15.470;2023-02-01T17:45:37;100605.75;;;-0.67;100.00
13420;BME280;6781;58.440;15.470;2023-02-01T17:48:11;100610.97;;;-0.70;100.00
13420;BME280;6781;58.440;15.470;2023-02-01T17:50:38;100616.28;;;-0.78;100.00
13420;BME280;6781;58.440;15.470;2023-02-01T17:53:06;100626.28;;;-0.72;100.00
13420;BME280;6781;58.440;15.470;2023-02-01T17:55:34;100627.22;;;-0.74;100.00
13420;BME280;6781;58.440;15.470;2023-02-01T17:58:02;100634.16;;;-0.79;100.00
13420;BME280;6781;58.440;15.470;2023-02-01T18:00:29;100638.41;;;-0.80;100.00
13420;BME280;6781;58.440;15.470;2023-02-01T18:02:56;100643.50;;;-0.80;100.00
13420;BME280;6781;58.440;15.470;2023-02-01T18:05:35;100652.13;;;-0.84;100.00
13420;BME280;6781;58.440;15.470;2023-02-01T18:08:04;100653.78;;;-0.83;100.00
13420;BME280;6781;58.440;15.470;2023-02-01T18:10:31;100652.22;;;-0.87;100.00
13420;BME280;6781;58.440;15.470;2023-02-01T18:12:57;100652.22;;;-0.87;100.00
13420;BME280;6781;58.440;15.470;2023-02-01T19:42:21;100782.91;;;-0.88;100.00
13420;BME280;6781;58.440;15.470;2023-02-01T19:44:48;100788.00;;;-0.88;100.00
13420;BME280;6781;58.440;15.470;2023-02-01T19:47:37;100797.38;;;-0.90;100.00
13420;BME280;6781;58.440;15.470;2023-02-01T19:53:22;100815.97;;;-0.88;100.00
13420;BME280;6781;58.440;15.470;2023-02-01T19:55:53;100817.69;;;-0.88;100.00
13420;BME280;6781;58.440;15.470;2023-02-01T19:58:21;100828.63;;;-0.85;100.00
13420;BME280;6781;58.440;15.470;2023-02-01T20:00:52;100814.50;;;-0.95;100.00
13420;BME280;6781;58.440;15.470;2023-02-01T20:10:13;100813.13;;;-1.07;100.00
13420;BME280;6781;58.440;15.470;2023-02-01T20:12:48;100807.09;;;-1.04;100.00
13420;BME280;6781;58.440;15.470;2023-02-01T20:46:02;100788.84;;;-1.18;100.00
13420;BME280;6781;58.440;15.470;2023-02-01T21:05:00;100802.78;;;-1.32;100.00
13420;BME280;6781;58.440;15.470;2023-02-01T21:13:32;100800.34;;;-1.36;100.00
